Azul Libero — 9VMU5 — position and weather

sailwx.info

Track history (hours):
 
Tides and Currents Weather Stations Pressure Air Temp Water Temp Dewpoint Dewpoint Depression Visibility Wind Speed Wind Dir Waves Ship Positions

Azul Libero

Last reported at 2017-Dec-11 06:05 UTC. Time now 2017-Dec-15 12:15 UTC.
Position S 18°59' E 118°56'.

Length 300 m; beam 50 m.

Type: Cargo ship. MMSI: 564690000.

Date/timePositionNaut miles runAvg speedWind from/ knotsBaromVisibWave heightAir tempDewpointWater temp
2017-Dec-11 06:05S 18°59' E 118°56'2213.1
2017-Dec-11 04:22S 19°20' E 118°47'512.9
2017-Dec-11 04:00S 19°24' E 118°44'612.7
2017-Dec-11 03:30S 19°30' E 118°41'2712.8
2017-Dec-11 01:21S 19°54' E 118°28'512.0
2017-Dec-11 00:57S 19°59' E 118°27'22 0.7
2017-Dec-09 17:32S 20°19' E 118°35'0 0.0
2017-Dec-09 17:26S 20°19' E 118°35'1 0.0
2017-Dec-09 03:54S 20°19' E 118°34'7 8.9
2017-Dec-09 03:10S 20°12' E 118°33'2 9.7
2017-Dec-09 03:00S 20°11' E 118°33'2 3.8
2017-Dec-09 02:27S 20°08' E 118°33'1 3.1
2017-Dec-09 02:00S 20°07' E 118°33'1 0.1
2017-Dec-08 11:21S 20°06' E 118°32'0 0.2
2017-Dec-08 10:57S 20°06' E 118°32'0 0.1
2017-Dec-08 10:27S 20°06' E 118°32'0 0.0
2017-Dec-08 09:39S 20°06' E 118°32'0 0.3
2017-Dec-08 09:27S 20°06' E 118°32'0 0.1
2017-Dec-08 08:21S 20°06' E 118°32'0 0.1
2017-Dec-08 07:03S 20°07' E 118°32'0 0.1
2017-Dec-08 06:57S 20°07' E 118°32'0 0.0
2017-Dec-08 05:21S 20°07' E 118°32'0 0.0
2017-Dec-08 04:57S 20°07' E 118°32'0 0.0
2017-Dec-08 04:27S 20°07' E 118°32'2 5.2
2017-Dec-08 04:00S 20°06' E 118°30'2 1.9 320 / 101013.810.8 31.025.732.0
2017-Dec-08 02:45S 20°07' E 118°32'0 0.0
2017-Dec-08 01:21S 20°07' E 118°32'0 0.1
2017-Dec-08 00:45S 20°07' E 118°32'0 0.1
2017-Dec-07 20:09S 20°06' E 118°32'0 0.1
2017-Dec-07 19:57S 20°06' E 118°32'0 0.1
2017-Dec-07 18:51S 20°06' E 118°32'0 0.2
2017-Dec-07 18:27S 20°06' E 118°32'0 0.0
2017-Dec-07 14:09S 20°07' E 118°32'0 0.0
2017-Dec-07 13:57S 20°07' E 118°32'0 0.0
2017-Dec-07 11:09S 20°07' E 118°32'0 0.4
2017-Dec-07 10:51S 20°07' E 118°32'0 0.2
2017-Dec-07 08:57S 20°06' E 118°32'0 0.2
2017-Dec-07 07:51S 20°06' E 118°32'0 0.2
2017-Dec-07 07:27S 20°07' E 118°32'0 0.1
2017-Dec-07 06:57S 20°07' E 118°32'0 0.0
2017-Dec-07 06:21S 20°07' E 118°32'2 1.0
2017-Dec-07 04:00S 20°06' E 118°30'2 0.7 320 / 101012.827.0 33.026.432.0
2017-Dec-07 00:51S 20°07' E 118°32'0 0.1
2017-Dec-07 00:27S 20°07' E 118°32'  
Track history (hours):
 
Tides and Currents Weather Stations Pressure Air Temp Water Temp Dewpoint Dewpoint Depression Visibility Wind Speed Wind Dir Waves Ship Positions

Azul Libero

Last reported at 2017-Dec-11 06:05 UTC. Time now 2017-Dec-15 12:15 UTC.
Position S 18°59' E 118°56'.

Length 300 m; beam 50 m.

Type: Cargo ship. MMSI: 564690000.

Date/timePositionNaut miles runAvg speedWind from/ knotsBaromVisibWave heightAir tempDewpointWater temp
2017-Dec-11 06:05S 18°59' E 118°56'2213.1
2017-Dec-11 04:22S 19°20' E 118°47'512.9
2017-Dec-11 04:00S 19°24' E 118°44'612.7
2017-Dec-11 03:30S 19°30' E 118°41'2712.8
2017-Dec-11 01:21S 19°54' E 118°28'512.0
2017-Dec-11 00:57S 19°59' E 118°27'22 0.7
2017-Dec-09 17:32S 20°19' E 118°35'0 0.0
2017-Dec-09 17:26S 20°19' E 118°35'1 0.0
2017-Dec-09 03:54S 20°19' E 118°34'7 8.9
2017-Dec-09 03:10S 20°12' E 118°33'2 9.7
2017-Dec-09 03:00S 20°11' E 118°33'2 3.8
2017-Dec-09 02:27S 20°08' E 118°33'1 3.1
2017-Dec-09 02:00S 20°07' E 118°33'1 0.1
2017-Dec-08 11:21S 20°06' E 118°32'0 0.2
2017-Dec-08 10:57S 20°06' E 118°32'0 0.1
2017-Dec-08 10:27S 20°06' E 118°32'0 0.0
2017-Dec-08 09:39S 20°06' E 118°32'0 0.3
2017-Dec-08 09:27S 20°06' E 118°32'0 0.1
2017-Dec-08 08:21S 20°06' E 118°32'0 0.1
2017-Dec-08 07:03S 20°07' E 118°32'0 0.1
2017-Dec-08 06:57S 20°07' E 118°32'0 0.0
2017-Dec-08 05:21S 20°07' E 118°32'0 0.0
2017-Dec-08 04:57S 20°07' E 118°32'0 0.0
2017-Dec-08 04:27S 20°07' E 118°32'2 5.2
2017-Dec-08 04:00S 20°06' E 118°30'2 1.9 320 / 101013.810.8 31.025.732.0
2017-Dec-08 02:45S 20°07' E 118°32'0 0.0
2017-Dec-08 01:21S 20°07' E 118°32'0 0.1
2017-Dec-08 00:45S 20°07' E 118°32'0 0.1
2017-Dec-07 20:09S 20°06' E 118°32'0 0.1
2017-Dec-07 19:57S 20°06' E 118°32'0 0.1
2017-Dec-07 18:51S 20°06' E 118°32'0 0.2
2017-Dec-07 18:27S 20°06' E 118°32'0 0.0
2017-Dec-07 14:09S 20°07' E 118°32'0 0.0
2017-Dec-07 13:57S 20°07' E 118°32'0 0.0
2017-Dec-07 11:09S 20°07' E 118°32'0 0.4
2017-Dec-07 10:51S 20°07' E 118°32'0 0.2
2017-Dec-07 08:57S 20°06' E 118°32'0 0.2
2017-Dec-07 07:51S 20°06' E 118°32'0 0.2
2017-Dec-07 07:27S 20°07' E 118°32'0 0.1
2017-Dec-07 06:57S 20°07' E 118°32'0 0.0
2017-Dec-07 06:21S 20°07' E 118°32'2 1.0
2017-Dec-07 04:00S 20°06' E 118°30'2 0.7 320 / 101012.827.0 33.026.432.0
2017-Dec-07 00:51S 20°07' E 118°32'0 0.1
2017-Dec-07 00:27S 20°07' E 118°32'  

Dump ship's entire track history